sensor_id;sensor_type;location;lat;lon;timestamp;pressure;altitude;pressure_sealevel;temperature;humidity
7433;BME280;32233;49.500;7.764;2023-02-15T00:01:50;99872.94;;;-1.28;100.00
7433;BME280;32233;49.500;7.764;2023-02-15T00:04:20;99875.44;;;-1.12;100.00
7433;BME280;32233;49.500;7.764;2023-02-15T00:06:47;99871.81;;;-1.23;100.00
7433;BME280;32233;49.500;7.764;2023-02-15T00:09:13;99871.94;;;-1.25;100.00
7433;BME280;32233;49.500;7.764;2023-02-15T00:11:40;99865.72;;;-1.22;100.00
7433;BME280;32233;49.500;7.764;2023-02-15T00:14:11;99865.25;;;-1.15;100.00
7433;BME280;32233;49.500;7.764;2023-02-15T00:16:39;99863.97;;;-1.22;100.00
7433;BME280;32233;49.500;7.764;2023-02-15T00:19:06;99864.41;;;-1.30;100.00
7433;BME280;32233;49.500;7.764;2023-02-15T00:21:33;99859.50;;;-1.34;100.00
7433;BME280;32233;49.500;7.764;2023-02-15T00:24:02;99854.69;;;-1.12;100.00
7433;BME280;32233;49.500;7.764;2023-02-15T00:26:29;99853.09;;;-1.00;100.00
7433;BME280;32233;49.500;7.764;2023-02-15T00:28:57;99868.13;;;-1.19;100.00
7433;BME280;32233;49.500;7.764;2023-02-15T00:31:27;99860.72;;;-1.26;100.00
7433;BME280;32233;49.500;7.764;2023-02-15T00:33:54;99865.97;;;-1.27;100.00
7433;BME280;32233;49.500;7.764;2023-02-15T00:36:21;99856.81;;;-1.33;100.00
7433;BME280;32233;49.500;7.764;2023-02-15T00:38:47;99860.13;;;-1.45;100.00
7433;BME280;32233;49.500;7.764;2023-02-15T00:41:15;99847.94;;;-1.14;100.00
7433;BME280;32233;49.500;7.764;2023-02-15T00:43:42;99856.16;;;-1.36;100.00
7433;BME280;32233;49.500;7.764;2023-02-15T00:46:08;99847.19;;;-1.31;100.00
7433;BME280;32233;49.500;7.764;2023-02-15T00:48:35;99851.53;;;-1.31;100.00
7433;BME280;32233;49.500;7.764;2023-02-15T00:51:03;99851.91;;;-1.37;100.00
7433;BME280;32233;49.500;7.764;2023-02-15T00:53:29;99847.91;;;-1.29;100.00
7433;BME280;32233;49.500;7.764;2023-02-15T00:55:57;99852.72;;;-1.37;100.00
7433;BME280;32233;49.500;7.764;2023-02-15T00:58:25;99850.59;;;-1.16;100.00
7433;BME280;32233;49.500;7.764;2023-02-15T01:00:51;99856.09;;;-1.35;100.00
7433;BME280;32233;49.500;7.764;2023-02-15T01:03:19;99846.34;;;-1.17;100.00
7433;BME280;32233;49.500;7.764;2023-02-15T01:05:48;99847.81;;;-1.27;100.00
7433;BME280;32233;49.500;7.764;2023-02-15T01:08:15;99846.72;;;-1.09;100.00
7433;BME280;32233;49.500;7.764;2023-02-15T01:10:42;99850.63;;;-1.02;100.00
7433;BME280;32233;49.500;7.764;2023-02-15T01:13:10;99840.59;;;-1.08;100.00
7433;BME280;32233;49.500;7.764;2023-02-15T01:15:36;99845.41;;;-0.87;100.00
7433;BME280;32233;49.500;7.764;2023-02-15T01:18:03;99836.53;;;-1.26;100.00
7433;BME280;32233;49.500;7.764;2023-02-15T01:20:30;99840.41;;;-1.19;100.00
7433;BME280;32233;49.500;7.764;2023-02-15T01:23:00;99834.00;;;-1.28;100.00
7433;BME280;32233;49.500;7.764;2023-02-15T01:25:26;99841.81;;;-1.42;100.00
7433;BME280;32233;49.500;7.764;2023-02-15T01:27:54;99837.66;;;-1.30;100.00
7433;BME280;32233;49.500;7.764;2023-02-15T01:30:20;99836.72;;;-1.29;100.00
7433;BME280;32233;49.500;7.764;2023-02-15T01:32:47;99838.91;;;-1.23;100.00
7433;BME280;32233;49.500;7.764;2023-02-15T01:35:13;99833.28;;;-1.01;100.00
7433;BME280;32233;49.500;7.764;2023-02-15T01:37:40;99837.16;;;-1.08;100.00
7433;BME280;32233;49.500;7.764;2023-02-15T01:40:09;99838.66;;;-0.90;100.00
7433;BME280;32233;49.500;7.764;2023-02-15T01:42:38;99835.94;;;-1.03;100.00
7433;BME280;32233;49.500;7.764;2023-02-15T01:45:19;99835.59;;;-1.25;100.00
7433;BME280;32233;49.500;7.764;2023-02-15T01:47:52;99824.97;;;-1.35;100.00
7433;BME280;32233;49.500;7.764;2023-02-15T01:50:30;99822.91;;;-1.15;100.00
7433;BME280;32233;49.500;7.764;2023-02-15T01:53:08;99822.06;;;-1.02;100.00
7433;BME280;32233;49.500;7.764;2023-02-15T01:55:39;99809.81;;;-1.00;100.00
7433;BME280;32233;49.500;7.764;2023-02-15T01:58:08;99811.41;;;-1.11;100.00
7433;BME280;32233;49.500;7.764;2023-02-15T02:00:35;99812.06;;;-1.22;100.00
7433;BME280;32233;49.500;7.764;2023-02-15T02:03:03;99808.34;;;-1.04;100.00
7433;BME280;32233;49.500;7.764;2023-02-15T02:05:30;99805.91;;;-0.92;100.00
7433;BME280;32233;49.500;7.764;2023-02-15T02:07:58;99801.41;;;-1.17;100.00
7433;BME280;32233;49.500;7.764;2023-02-15T02:10:26;99801.31;;;-1.16;100.00
7433;BME280;32233;49.500;7.764;2023-02-15T02:12:58;99803.81;;;-1.14;100.00
7433;BME280;32233;49.500;7.764;2023-02-15T02:15:41;99800.94;;;-1.24;100.00
7433;BME280;32233;49.500;7.764;2023-02-15T02:26:46;99805.84;;;-1.05;100.00
7433;BME280;32233;49.500;7.764;2023-02-15T02:29:38;99815.88;;;-1.13;100.00
7433;BME280;32233;49.500;7.764;2023-02-15T02:34:58;99805.94;;;-1.07;100.00
7433;BME280;32233;49.500;7.764;2023-02-15T02:43:07;99786.44;;;-0.85;100.00
7433;BME280;32233;49.500;7.764;2023-02-15T02:45:44;99782.56;;;-0.92;100.00
7433;BME280;32233;49.500;7.764;2023-02-15T02:48:15;99785.63;;;-1.00;100.00
7433;BME280;32233;49.500;7.764;2023-02-15T02:50:48;99775.81;;;-1.09;100.00
7433;BME280;32233;49.500;7.764;2023-02-15T02:53:15;99779.31;;;-0.82;100.00
7433;BME280;32233;49.500;7.764;2023-02-15T02:56:24;99771.72;;;-0.99;100.00
7433;BME280;32233;49.500;7.764;2023-02-15T02:58:54;99778.78;;;-1.01;100.00
7433;BME280;32233;49.500;7.764;2023-02-15T03:01:37;99782.56;;;-0.92;100.00
7433;BME280;32233;49.500;7.764;2023-02-15T03:04:12;99780.97;;;-0.95;100.00
7433;BME280;32233;49.500;7.764;2023-02-15T03:06:50;99772.28;;;-0.94;100.00
7433;BME280;32233;49.500;7.764;2023-02-15T03:09:25;99781.03;;;-0.82;100.00
7433;BME280;32233;49.500;7.764;2023-02-15T03:12:14;99769.69;;;-0.94;100.00
7433;BME280;32233;49.500;7.764;2023-02-15T03:14:48;99770.88;;;-0.85;100.00
7433;BME280;32233;49.500;7.764;2023-02-15T03:17:17;99765.13;;;-0.90;100.00
7433;BME280;32233;49.500;7.764;2023-02-15T03:19:47;99762.44;;;-0.89;100.00
7433;BME280;32233;49.500;7.764;2023-02-15T03:22:21;99766.16;;;-0.66;100.00
7433;BME280;32233;49.500;7.764;2023-02-15T03:24:55;99757.25;;;-0.89;100.00
7433;BME280;32233;49.500;7.764;2023-02-15T03:27:26;99755.84;;;-0.94;100.00
7433;BME280;32233;49.500;7.764;2023-02-15T03:29:56;99749.09;;;-0.70;100.00
7433;BME280;32233;49.500;7.764;2023-02-15T03:32:25;99743.88;;;-0.83;100.00
7433;BME280;32233;49.500;7.764;2023-02-15T03:34:54;99753.19;;;-0.93;100.00
7433;BME280;32233;49.500;7.764;2023-02-15T03:37:32;99744.22;;;-0.75;100.00
7433;BME280;32233;49.500;7.764;2023-02-15T03:40:40;99738.88;;;-0.86;100.00
7433;BME280;32233;49.500;7.764;2023-02-15T03:47:06;99741.53;;;-0.73;100.00
7433;BME280;32233;49.500;7.764;2023-02-15T03:49:10;99746.03;;;-0.62;100.00
7433;BME280;32233;49.500;7.764;2023-02-15T03:51:40;99750.09;;;-0.58;100.00
7433;BME280;32233;49.500;7.764;2023-02-15T03:54:15;99747.97;;;-0.66;100.00
7433;BME280;32233;49.500;7.764;2023-02-15T03:57:17;99745.31;;;-0.64;100.00
7433;BME280;32233;49.500;7.764;2023-02-15T04:00:17;99752.06;;;-0.89;100.00
7433;BME280;32233;49.500;7.764;2023-02-15T04:05:42;99744.41;;;-1.05;100.00
7433;BME280;32233;49.500;7.764;2023-02-15T04:08:10;99751.78;;;-0.98;100.00
7433;BME280;32233;49.500;7.764;2023-02-15T04:10:37;99747.44;;;-0.98;100.00
7433;BME280;32233;49.500;7.764;2023-02-15T04:13:21;99747.03;;;-0.92;100.00
7433;BME280;32233;49.500;7.764;2023-02-15T04:15:48;99744.31;;;-0.76;100.00
7433;BME280;32233;49.500;7.764;2023-02-15T04:18:34;99746.81;;;-0.75;100.00
7433;BME280;32233;49.500;7.764;2023-02-15T04:21:20;99745.81;;;-0.86;100.00
7433;BME280;32233;49.500;7.764;2023-02-15T04:24:07;99753.13;;;-0.79;100.00
7433;BME280;32233;49.500;7.764;2023-02-15T04:26:52;99758.59;;;-0.83;100.00
7433;BME280;32233;49.500;7.764;2023-02-15T04:29:25;99758.75;;;-0.99;100.00
7433;BME280;32233;49.500;7.764;2023-02-15T04:31:53;99754.59;;;-1.16;100.00
7433;BME280;32233;49.500;7.764;2023-02-15T04:34:20;99759.53;;;-1.26;100.00
7433;BME280;32233;49.500;7.764;2023-02-15T04:36:46;99751.94;;;-1.29;100.00
7433;BME280;32233;49.500;7.764;2023-02-15T04:39:14;99755.41;;;-1.01;100.00
7433;BME280;32233;49.500;7.764;2023-02-15T04:41:41;99746.38;;;-0.81;100.00
7433;BME280;32233;49.500;7.764;2023-02-15T04:44:08;99747.22;;;-0.95;100.00
7433;BME280;32233;49.500;7.764;2023-02-15T04:46:35;99743.22;;;-0.86;100.00
7433;BME280;32233;49.500;7.764;2023-02-15T04:49:01;99750.22;;;-1.01;100.00
7433;BME280;32233;49.500;7.764;2023-02-15T04:51:28;99740.28;;;-0.94;100.00
7433;BME280;32233;49.500;7.764;2023-02-15T04:53:54;99738.81;;;-0.98;100.00
7433;BME280;32233;49.500;7.764;2023-02-15T04:56:22;99738.44;;;-0.92;100.00
7433;BME280;32233;49.500;7.764;2023-02-15T04:58:48;99736.06;;;-0.83;100.00
7433;BME280;32233;49.500;7.764;2023-02-15T05:01:15;99740.13;;;-1.06;100.00
7433;BME280;32233;49.500;7.764;2023-02-15T05:03:42;99735.78;;;-1.05;100.00
7433;BME280;32233;49.500;7.764;2023-02-15T05:06:08;99739.44;;;-0.95;100.00
7433;BME280;32233;49.500;7.764;2023-02-15T05:08:35;99736.47;;;-0.89;100.00
7433;BME280;32233;49.500;7.764;2023-02-15T05:11:01;99731.38;;;-0.90;100.00
7433;BME280;32233;49.500;7.764;2023-02-15T05:13:28;99733.28;;;-0.80;100.00
7433;BME280;32233;49.500;7.764;2023-02-15T05:15:54;99732.78;;;-0.99;100.00
7433;BME280;32233;49.500;7.764;2023-02-15T05:18:21;99733.38;;;-1.08;100.00
7433;BME280;32233;49.500;7.764;2023-02-15T05:20:48;99743.03;;;-1.25;100.00
7433;BME280;32233;49.500;7.764;2023-02-15T05:23:15;99740.56;;;-0.99;100.00
7433;BME280;32233;49.500;7.764;2023-02-15T05:25:49;99738.84;;;-1.27;100.00
7433;BME280;32233;49.500;7.764;2023-02-15T05:28:35;99739.44;;;-1.36;100.00
7433;BME280;32233;49.500;7.764;2023-02-15T05:31:18;99737.25;;;-1.15;100.00
7433;BME280;32233;49.500;7.764;2023-02-15T05:33:45;99734.53;;;-1.27;100.00
7433;BME280;32233;49.500;7.764;2023-02-15T05:36:12;99743.69;;;-1.35;100.00
7433;BME280;32233;49.500;7.764;2023-02-15T05:38:39;99749.69;;;-1.20;100.00
7433;BME280;32233;49.500;7.764;2023-02-15T05:41:07;99743.28;;;-1.15;100.00
7433;BME280;32233;49.500;7.764;2023-02-15T05:43:34;99748.69;;;-1.32;100.00
7433;BME280;32233;49.500;7.764;2023-02-15T05:46:01;99742.66;;;-1.18;100.00
7433;BME280;32233;49.500;7.764;2023-02-15T05:48:28;99733.94;;;-1.32;100.00
7433;BME280;32233;49.500;7.764;2023-02-15T05:53:29;99755.13;;;-1.11;100.00
7433;BME280;32233;49.500;7.764;2023-02-15T05:55:55;99754.06;;;-1.21;100.00
7433;BME280;32233;49.500;7.764;2023-02-15T05:58:26;99762.50;;;-0.90;100.00
7433;BME280;32233;49.500;7.764;2023-02-15T06:00:54;99759.94;;;-0.63;100.00
7433;BME280;32233;49.500;7.764;2023-02-15T06:03:22;99764.00;;;-0.86;100.00
7433;BME280;32233;49.500;7.764;2023-02-15T06:05:49;99758.19;;;-0.90;100.00
7433;BME280;32233;49.500;7.764;2023-02-15T06:08:15;99755.00;;;-1.22;100.00
7433;BME280;32233;49.500;7.764;2023-02-15T06:10:42;99761.94;;;-1.22;100.00
7433;BME280;32233;49.500;7.764;2023-02-15T06:13:08;99749.94;;;-1.11;100.00
7433;BME280;32233;49.500;7.764;2023-02-15T06:15:35;99759.00;;;-1.31;100.00
7433;BME280;32233;49.500;7.764;2023-02-15T06:18:01;99760.53;;;-1.14;100.00
7433;BME280;32233;49.500;7.764;2023-02-15T06:20:28;99762.41;;;-1.30;100.00
7433;BME280;32233;49.500;7.764;2023-02-15T06:22:54;99764.91;;;-1.14;100.00
7433;BME280;32233;49.500;7.764;2023-02-15T06:25:21;99768.44;;;-1.58;100.00
7433;BME280;32233;49.500;7.764;2023-02-15T06:27:47;99762.31;;;-1.29;100.00
7433;BME280;32233;49.500;7.764;2023-02-15T06:30:15;99765.88;;;-1.03;100.00
7433;BME280;32233;49.500;7.764;2023-02-15T06:32:42;99765.72;;;-1.14;100.00
7433;BME280;32233;49.500;7.764;2023-02-15T06:35:09;99769.44;;;-1.18;100.00
7433;BME280;32233;49.500;7.764;2023-02-15T06:37:38;99762.56;;;-1.19;100.00
7433;BME280;32233;49.500;7.764;2023-02-15T06:40:05;99770.28;;;-1.17;100.00
7433;BME280;32233;49.500;7.764;2023-02-15T06:42:31;99773.88;;;-1.06;100.00
7433;BME280;32233;49.500;7.764;2023-02-15T06:44:58;99781.13;;;-1.25;100.00
7433;BME280;32233;49.500;7.764;2023-02-15T06:47:26;99782.22;;;-1.29;100.00
7433;BME280;32233;49.500;7.764;2023-02-15T06:49:52;99789.25;;;-1.17;100.00
7433;BME280;32233;49.500;7.764;2023-02-15T06:52:19;99801.38;;;-0.89;100.00
7433;BME280;32233;49.500;7.764;2023-02-15T06:54:45;99784.69;;;-0.99;100.00
7433;BME280;32233;49.500;7.764;2023-02-15T06:57:12;99779.31;;;-0.82;100.00
7433;BME280;32233;49.500;7.764;2023-02-15T06:59:38;99786.84;;;-1.06;100.00
7433;BME280;32233;49.500;7.764;2023-02-15T07:02:05;99786.63;;;-0.88;100.00
7433;BME280;32233;49.500;7.764;2023-02-15T07:04:32;99787.56;;;-0.89;100.00
7433;BME280;32233;49.500;7.764;2023-02-15T07:06:58;99789.47;;;-1.34;100.00
7433;BME280;32233;49.500;7.764;2023-02-15T07:09:25;99786.84;;;-1.48;100.00
7433;BME280;32233;49.500;7.764;2023-02-15T07:11:52;99787.25;;;-1.55;100.00
7433;BME280;32233;49.500;7.764;2023-02-15T07:14:37;99785.84;;;-1.46;100.00
7433;BME280;32233;49.500;7.764;2023-02-15T07:17:03;99788.16;;;-1.27;100.00
7433;BME280;32233;49.500;7.764;2023-02-15T07:19:32;99792.44;;;-1.26;100.00
7433;BME280;32233;49.500;7.764;2023-02-15T07:21:59;99791.09;;;-1.05;100.00
7433;BME280;32233;49.500;7.764;2023-02-15T07:24:26;99784.91;;;-1.45;100.00
7433;BME280;32233;49.500;7.764;2023-02-15T07:26:52;99779.06;;;-1.48;100.00
7433;BME280;32233;49.500;7.764;2023-02-15T07:29:19;99778.25;;;-1.20;100.00
7433;BME280;32233;49.500;7.764;2023-02-15T07:31:45;99787.56;;;-1.04;100.00
7433;BME280;32233;49.500;7.764;2023-02-15T07:34:12;99781.97;;;-0.83;100.00
7433;BME280;32233;49.500;7.764;2023-02-15T07:36:38;99780.53;;;-1.02;100.00
7433;BME280;32233;49.500;7.764;2023-02-15T07:39:05;99781.31;;;-1.28;100.00
7433;BME280;32233;49.500;7.764;2023-02-15T07:41:32;99769.44;;;-1.18;100.00
7433;BME280;32233;49.500;7.764;2023-02-15T07:43:58;99773.63;;;-1.30;100.00
7433;BME280;32233;49.500;7.764;2023-02-15T07:46:25;99772.75;;;-1.02;100.00
7433;BME280;32233;49.500;7.764;2023-02-15T07:48:52;99777.66;;;-1.11;100.00
7433;BME280;32233;49.500;7.764;2023-02-15T07:51:19;99764.19;;;-1.31;100.00
7433;BME280;32233;49.500;7.764;2023-02-15T07:53:46;99763.13;;;-1.14;100.00
7433;BME280;32233;49.500;7.764;2023-02-15T07:56:14;99771.63;;;-0.97;100.00
7433;BME280;32233;49.500;7.764;2023-02-15T07:58:41;99761.25;;;-1.12;100.00
7433;BME280;32233;49.500;7.764;2023-02-15T08:01:18;99765.56;;;-0.84;100.00
7433;BME280;32233;49.500;7.764;2023-02-15T08:03:45;99759.72;;;-0.87;100.00
7433;BME280;32233;49.500;7.764;2023-02-15T08:06:12;99759.00;;;-0.89;100.00
7433;BME280;32233;49.500;7.764;2023-02-15T08:08:40;99752.63;;;-0.71;100.00
7433;BME280;32233;49.500;7.764;2023-02-15T08:11:16;99747.38;;;-0.69;100.00
7433;BME280;32233;49.500;7.764;2023-02-15T08:19:05;99734.41;;;-0.84;100.00
7433;BME280;32233;49.500;7.764;2023-02-15T08:21:33;99733.34;;;-0.67;100.00
7433;BME280;32233;49.500;7.764;2023-02-15T08:23:59;99741.91;;;-0.52;100.00
7433;BME280;32233;49.500;7.764;2023-02-15T08:26:27;99736.88;;;-0.41;100.00
7433;BME280;32233;49.500;7.764;2023-02-15T08:28:54;99742.41;;;-0.60;100.00
7433;BME280;32233;49.500;7.764;2023-02-15T08:31:22;99744.22;;;-0.75;100.00
7433;BME280;32233;49.500;7.764;2023-02-15T08:33:50;99744.84;;;-0.44;100.00
7433;BME280;32233;49.500;7.764;2023-02-15T08:36:20;99738.66;;;-0.29;100.00
7433;BME280;32233;49.500;7.764;2023-02-15T08:38:47;99742.34;;;-0.45;100.00
7433;BME280;32233;49.500;7.764;2023-02-15T08:43:43;99734.72;;;-0.61;100.00
7433;BME280;32233;49.500;7.764;2023-02-15T08:46:11;99735.94;;;-0.40;100.00
7433;BME280;32233;49.500;7.764;2023-02-15T08:48:37;99739.72;;;-0.45;100.00
7433;BME280;32233;49.500;7.764;2023-02-15T08:51:06;99732.03;;;-0.20;100.00
7433;BME280;32233;49.500;7.764;2023-02-15T08:53:33;99727.56;;;0.08;100.00
7433;BME280;32233;49.500;7.764;2023-02-15T08:55:59;99724.84;;;-0.16;100.00
7433;BME280;32233;49.500;7.764;2023-02-15T08:58:26;99725.44;;;-0.26;100.00
7433;BME280;32233;49.500;7.764;2023-02-15T09:00:52;99721.00;;;-0.11;100.00
7433;BME280;32233;49.500;7.764;2023-02-15T09:03:19;99728.28;;;-0.03;100.00
7433;BME280;32233;49.500;7.764;2023-02-15T09:05:45;99715.94;;;0.13;100.00
7433;BME280;32233;49.500;7.764;2023-02-15T09:08:12;99727.97;;;-0.24;100.00
7433;BME280;32233;49.500;7.764;2023-02-15T09:10:38;99723.66;;;-0.38;100.00
7433;BME280;32233;49.500;7.764;2023-02-15T09:13:05;99718.41;;;-0.11;100.00
7433;BME280;32233;49.500;7.764;2023-02-15T09:15:31;99724.44;;;0.28;100.00
7433;BME280;32233;49.500;7.764;2023-02-15T09:17:58;99720.69;;;0.58;100.00
7433;BME280;32233;49.500;7.764;2023-02-15T09:20:27;99726.19;;;-0.23;100.00
7433;BME280;32233;49.500;7.764;2023-02-15T09:22:55;99734.63;;;0.06;100.00
7433;BME280;32233;49.500;7.764;2023-02-15T09:25:25;99745.44;;;-0.01;100.00
7433;BME280;32233;49.500;7.764;2023-02-15T09:27:51;99740.03;;;0.28;100.00
7433;BME280;32233;49.500;7.764;2023-02-15T09:30:18;99747.03;;;0.53;100.00
7433;BME280;32233;49.500;7.764;2023-02-15T09:32:45;99742.84;;;0.63;100.00
7433;BME280;32233;49.500;7.764;2023-02-15T09:35:12;99736.41;;;0.05;100.00
7433;BME280;32233;49.500;7.764;2023-02-15T09:37:38;99736.31;;;0.58;100.00
7433;BME280;32233;49.500;7.764;2023-02-15T09:40:06;99731.56;;;0.76;100.00
7433;BME280;32233;49.500;7.764;2023-02-15T09:42:42;99740.16;;;0.39;100.00
7433;BME280;32233;49.500;7.764;2023-02-15T09:48:25;99740.75;;;0.56;100.00
7433;BME280;32233;49.500;7.764;2023-02-15T09:54:13;99743.72;;;0.88;100.00
7433;BME280;32233;49.500;7.764;2023-02-15T09:56:58;99747.97;;;1.26;100.00
7433;BME280;32233;49.500;7.764;2023-02-15T09:59:41;99740.81;;;1.16;100.00
7433;BME280;32233;49.500;7.764;2023-02-15T10:02:27;99743.69;;;1.01;100.00
7433;BME280;32233;49.500;7.764;2023-02-15T10:08:23;99741.34;;;0.85;100.00
7433;BME280;32233;49.500;7.764;2023-02-15T10:11:12;99741.38;;;1.33;99.95
7433;BME280;32233;49.500;7.764;2023-02-15T10:14:25;99733.53;;;1.81;97.06
7433;BME280;32233;49.500;7.764;2023-02-15T10:17:16;99736.63;;;1.86;95.67
7433;BME280;32233;49.500;7.764;2023-02-15T10:22:55;99727.53;;;3.04;90.98
7433;BME280;32233;49.500;7.764;2023-02-15T10:26:04;99722.22;;;3.90;82.81
7433;BME280;32233;49.500;7.764;2023-02-15T10:31:26;99714.56;;;4.90;75.65
7433;BME280;32233;49.500;7.764;2023-02-15T10:34:05;99710.66;;;4.75;76.52
7433;BME280;32233;49.500;7.764;2023-02-15T10:36:51;99713.47;;;4.53;75.28
7433;BME280;32233;49.500;7.764;2023-02-15T10:39:41;99714.94;;;5.84;70.07
7433;BME280;32233;49.500;7.764;2023-02-15T10:50:40;99699.16;;;6.13;68.21
7433;BME280;32233;49.500;7.764;2023-02-15T10:53:20;99700.53;;;6.08;68.91
7433;BME280;32233;49.500;7.764;2023-02-15T11:04:24;99685.53;;;7.82;62.17
7433;BME280;32233;49.500;7.764;2023-02-15T11:06:59;99677.81;;;8.66;58.20
7433;BME280;32233;49.500;7.764;2023-02-15T11:09:36;99674.53;;;8.73;57.79
7433;BME280;32233;49.500;7.764;2023-02-15T11:12:09;99676.47;;;9.13;56.54
7433;BME280;32233;49.500;7.764;2023-02-15T11:14:54;99677.00;;;9.33;56.04
7433;BME280;32233;49.500;7.764;2023-02-15T11:17:35;99667.88;;;8.95;58.17
7433;BME280;32233;49.500;7.764;2023-02-15T11:20:21;99658.19;;;9.11;56.71
7433;BME280;32233;49.500;7.764;2023-02-15T11:22:51;99666.75;;;9.22;57.34
7433;BME280;32233;49.500;7.764;2023-02-15T11:25:30;99668.34;;;8.90;56.40
7433;BME280;32233;49.500;7.764;2023-02-15T11:27:58;99659.47;;;8.99;58.15
7433;BME280;32233;49.500;7.764;2023-02-15T11:30:36;99659.38;;;8.66;57.16
7433;BME280;32233;49.500;7.764;2023-02-15T11:33:16;99649.56;;;9.01;59.15
7433;BME280;32233;49.500;7.764;2023-02-15T11:35:55;99645.75;;;10.18;54.44
7433;BME280;32233;49.500;7.764;2023-02-15T11:38:28;99638.63;;;10.35;54.33
7433;BME280;32233;49.500;7.764;2023-02-15T11:41:03;99638.03;;;8.94;57.36
7433;BME280;32233;49.500;7.764;2023-02-15T11:43:44;99626.00;;;10.53;53.17
7433;BME280;32233;49.500;7.764;2023-02-15T11:46:14;99615.16;;;11.02;52.91
7433;BME280;32233;49.500;7.764;2023-02-15T11:48:41;99612.28;;;11.35;51.92
7433;BME280;32233;49.500;7.764;2023-02-15T11:51:13;99619.75;;;11.08;51.28
7433;BME280;32233;49.500;7.764;2023-02-15T11:53:40;99609.56;;;11.20;51.28
7433;BME280;32233;49.500;7.764;2023-02-15T11:56:13;99611.69;;;11.25;51.56
7433;BME280;32233;49.500;7.764;2023-02-15T11:59:00;99601.25;;;10.77;51.45
7433;BME280;32233;49.500;7.764;2023-02-15T12:01:44;99598.69;;;10.92;52.09
7433;BME280;32233;49.500;7.764;2023-02-15T12:07:43;99595.78;;;11.85;48.79
7433;BME280;32233;49.500;7.764;2023-02-15T12:10:26;99588.25;;;11.59;49.37
7433;BME280;32233;49.500;7.764;2023-02-15T12:13:12;99588.09;;;12.50;47.74
7433;BME280;32233;49.500;7.764;2023-02-15T12:15:42;99585.81;;;12.83;46.73
7433;BME280;32233;49.500;7.764;2023-02-15T12:18:39;99580.75;;;12.88;46.80
7433;BME280;32233;49.500;7.764;2023-02-15T12:21:30;99575.25;;;12.17;48.30
7433;BME280;32233;49.500;7.764;2023-02-15T12:24:21;99573.00;;;12.86;46.64
7433;BME280;32233;49.500;7.764;2023-02-15T12:27:19;99570.19;;;12.73;47.72
7433;BME280;32233;49.500;7.764;2023-02-15T12:29:51;99568.75;;;12.92;47.64
7433;BME280;32233;49.500;7.764;2023-02-15T12:32:25;99562.25;;;13.16;47.19
7433;BME280;32233;49.500;7.764;2023-02-15T12:34:59;99561.41;;;11.77;50.03
7433;BME280;32233;49.500;7.764;2023-02-15T12:37:29;99556.19;;;12.28;49.60
7433;BME280;32233;49.500;7.764;2023-02-15T12:40:00;99547.16;;;12.23;49.61
7433;BME280;32233;49.500;7.764;2023-02-15T12:42:28;99544.97;;;12.11;50.00
7433;BME280;32233;49.500;7.764;2023-02-15T12:45:26;99542.91;;;12.79;48.44
7433;BME280;32233;49.500;7.764;2023-02-15T12:51:07;99531.81;;;12.18;49.95
7433;BME280;32233;49.500;7.764;2023-02-15T12:53:36;99531.06;;;11.12;52.19
7433;BME280;32233;49.500;7.764;2023-02-15T12:56:04;99531.72;;;11.52;51.61
7433;BME280;32233;49.500;7.764;2023-02-15T12:58:40;99519.66;;;10.89;53.40
7433;BME280;32233;49.500;7.764;2023-02-15T13:01:18;99510.66;;;11.21;53.11
7433;BME280;32233;49.500;7.764;2023-02-15T13:04:03;99515.47;;;10.17;55.29
7433;BME280;32233;49.500;7.764;2023-02-15T13:06:35;99506.28;;;10.68;54.53
7433;BME280;32233;49.500;7.764;2023-02-15T13:09:16;99497.75;;;10.80;54.61
7433;BME280;32233;49.500;7.764;2023-02-15T13:11:44;99496.66;;;11.65;50.92
7433;BME280;32233;49.500;7.764;2023-02-15T13:14:19;99492.41;;;10.88;54.32
7433;BME280;32233;49.500;7.764;2023-02-15T13:16:50;99495.13;;;10.57;54.11
7433;BME280;32233;49.500;7.764;2023-02-15T13:19:45;99486.97;;;11.72;51.05
7433;BME280;32233;49.500;7.764;2023-02-15T13:22:16;99482.50;;;12.38;49.86
7433;BME280;32233;49.500;7.764;2023-02-15T13:24:47;99481.31;;;12.62;49.06
7433;BME280;32233;49.500;7.764;2023-02-15T13:27:20;99484.63;;;13.35;47.84
7433;BME280;32233;49.500;7.764;2023-02-15T13:29:51;99479.31;;;13.70;46.80
7433;BME280;32233;49.500;7.764;2023-02-15T13:32:31;99485.91;;;12.97;47.95
7433;BME280;32233;49.500;7.764;2023-02-15T13:35:00;99479.69;;;13.32;47.08
7433;BME280;32233;49.500;7.764;2023-02-15T13:38:02;99484.00;;;12.26;49.71
7433;BME280;32233;49.500;7.764;2023-02-15T13:41:01;99475.75;;;11.55;52.32
7433;BME280;32233;49.500;7.764;2023-02-15T13:48:49;99474.59;;;9.50;59.33
7433;BME280;32233;49.500;7.764;2023-02-15T13:59:55;99469.06;;;10.69;62.07
7433;BME280;32233;49.500;7.764;2023-02-15T14:05:29;99472.16;;;9.48;62.07
7433;BME280;32233;49.500;7.764;2023-02-15T14:08:11;99471.72;;;8.63;64.37
7433;BME280;32233;49.500;7.764;2023-02-15T14:10:59;99473.59;;;8.28;66.33
7433;BME280;32233;49.500;7.764;2023-02-15T14:27:26;99469.09;;;7.62;70.68
7433;BME280;32233;49.500;7.764;2023-02-15T14:29:59;99467.91;;;7.90;70.45
7433;BME280;32233;49.500;7.764;2023-02-15T14:32:32;99462.66;;;7.90;70.35
7433;BME280;32233;49.500;7.764;2023-02-15T14:35:02;99458.41;;;7.98;68.56
7433;BME280;32233;49.500;7.764;2023-02-15T14:37:37;99461.19;;;7.96;69.57
7433;BME280;32233;49.500;7.764;2023-02-15T14:43:24;99460.94;;;7.39;72.17
7433;BME280;32233;49.500;7.764;2023-02-15T14:45:58;99456.47;;;7.31;73.20
7433;BME280;32233;49.500;7.764;2023-02-15T14:48:33;99457.72;;;7.53;73.08
7433;BME280;32233;49.500;7.764;2023-02-15T14:51:05;99466.00;;;7.66;70.90
7433;BME280;32233;49.500;7.764;2023-02-15T14:58:37;99459.69;;;7.51;72.19
7433;BME280;32233;49.500;7.764;2023-02-15T15:01:06;99455.72;;;7.47;72.11
7433;BME280;32233;49.500;7.764;2023-02-15T15:03:34;99461.84;;;7.56;71.22
7433;BME280;32233;49.500;7.764;2023-02-15T15:06:04;99457.25;;;7.58;71.27
7433;BME280;32233;49.500;7.764;2023-02-15T15:08:36;99456.38;;;7.49;72.50
7433;BME280;32233;49.500;7.764;2023-02-15T15:14:09;99443.47;;;7.04;76.23
7433;BME280;32233;49.500;7.764;2023-02-15T15:19:07;99450.06;;;6.82;77.90
7433;BME280;32233;49.500;7.764;2023-02-15T15:45:00;99451.94;;;5.90;85.79
7433;BME280;32233;49.500;7.764;2023-02-15T15:47:42;99455.59;;;5.80;87.08
7433;BME280;32233;49.500;7.764;2023-02-15T15:50:24;99464.38;;;5.88;86.43
7433;BME280;32233;49.500;7.764;2023-02-15T15:52:53;99462.91;;;5.76;86.90